createdAt,value
2018-10-06T00:01:30.955Z,13.10
2018-10-06T00:04:05.728Z,13.53
2018-10-06T00:06:42.440Z,13.67
2018-10-06T00:09:17.006Z,13.43
2018-10-06T00:11:51.722Z,13.30
2018-10-06T00:14:26.249Z,12.60
2018-10-06T00:17:01.186Z,12.63
2018-10-06T00:19:35.639Z,12.23
2018-10-06T00:22:11.124Z,12.40
2018-10-06T00:24:45.830Z,11.83
2018-10-06T00:27:20.513Z,12.17
2018-10-06T00:30:01.412Z,13.67
2018-10-06T00:32:36.523Z,13.20
2018-10-06T00:35:16.187Z,12.83
2018-10-06T00:37:51.065Z,13.03
2018-10-06T00:40:29.764Z,14.73
2018-10-06T00:43:21.024Z,13.43
2018-10-06T00:46:07.928Z,13.83
2018-10-06T00:48:51.744Z,13.50
2018-10-06T00:51:57.617Z,13.97
2018-10-06T00:55:02.885Z,13.30
2018-10-06T00:58:02.155Z,13.40
2018-10-06T01:01:12.941Z,12.23
2018-10-06T01:04:16.455Z,13.00
2018-10-06T01:07:05.839Z,13.70
2018-10-06T01:09:45.911Z,13.03
2018-10-06T01:12:42.290Z,12.97
2018-10-06T01:15:46.358Z,12.30
2018-10-06T01:18:50.851Z,11.73
2018-10-06T01:21:37.654Z,12.30
2018-10-06T01:24:17.062Z,12.43
2018-10-06T01:27:07.799Z,12.70
2018-10-06T01:33:11.289Z,12.50
2018-10-06T01:36:14.708Z,11.77
2018-10-06T01:38:55.678Z,12.53
2018-10-06T01:41:42.676Z,12.67
2018-10-06T01:44:22.426Z,11.87
2018-10-06T01:47:24.146Z,12.93
2018-10-06T01:50:06.485Z,12.47
2018-10-06T01:53:11.578Z,12.00
2018-10-06T01:56:10.261Z,11.50
2018-10-06T02:02:29.865Z,12.30
2018-10-06T02:08:17.689Z,13.23
2018-10-06T02:11:08.647Z,12.30
2018-10-06T02:14:16.477Z,12.60
2018-10-06T02:17:15.326Z,12.53
2018-10-06T02:19:49.977Z,12.77
2018-10-06T02:22:57.118Z,12.43
2018-10-06T02:29:20.642Z,12.73
2018-10-06T02:32:13.568Z,12.90
2018-10-06T02:35:09.125Z,12.53
2018-10-06T02:38:10.313Z,13.33
2018-10-06T02:41:09.102Z,13.70
2018-10-06T02:44:09.887Z,13.53
2018-10-06T02:46:53.420Z,12.67
2018-10-06T02:49:29.825Z,13.23
2018-10-06T02:55:19.177Z,13.73
2018-10-06T02:58:21.802Z,13.07
2018-10-06T03:01:24.232Z,12.57
2018-10-06T03:04:39.564Z,13.10
2018-10-06T03:10:34.337Z,12.77
2018-10-06T03:16:21.190Z,11.17
2018-10-06T03:22:09.061Z,11.63
2018-10-06T03:25:09.964Z,12.50
2018-10-06T03:27:52.130Z,12.37
2018-10-06T03:30:57.365Z,13.10
2018-10-06T03:33:59.614Z,12.20
2018-10-06T03:36:47.277Z,11.17
2018-10-06T03:39:52.161Z,11.23
2018-10-06T03:42:45.257Z,11.33
2018-10-06T03:45:40.567Z,12.83
2018-10-06T03:48:28.858Z,12.47
2018-10-06T03:51:29.059Z,11.83
2018-10-06T03:54:35.300Z,12.90
2018-10-06T03:57:41.588Z,13.63
2018-10-06T04:00:42.860Z,12.53
2018-10-06T04:03:51.300Z,12.20
2018-10-06T04:09:53.041Z,12.77
2018-10-06T04:12:28.014Z,11.47
2018-10-06T04:15:03.838Z,12.43
2018-10-06T04:17:40.231Z,12.70
2018-10-06T04:20:15.562Z,12.00
2018-10-06T04:22:50.786Z,12.90
2018-10-06T04:25:25.603Z,13.17
2018-10-06T04:28:01.816Z,12.83
2018-10-06T04:30:37.755Z,13.20
2018-10-06T04:33:14.203Z,12.50
2018-10-06T04:35:49.267Z,13.03
2018-10-06T04:38:24.761Z,13.10
2018-10-06T04:41:00.013Z,13.30
2018-10-06T04:43:36.170Z,14.80
2018-10-06T04:46:12.891Z,13.90
2018-10-06T04:48:47.750Z,14.43
2018-10-06T04:51:23.608Z,13.83
2018-10-06T04:53:58.734Z,14.17
2018-10-06T04:56:34.329Z,14.00
2018-10-06T04:59:11.471Z,13.43
2018-10-06T05:01:46.576Z,13.63
2018-10-06T05:04:21.880Z,13.57
2018-10-06T05:06:57.487Z,13.33
2018-10-06T05:09:32.580Z,14.70
2018-10-06T05:12:35.184Z,13.10
2018-10-06T05:15:10.839Z,12.77
2018-10-06T05:18:02.595Z,12.60
2018-10-06T05:20:38.168Z,12.80
2018-10-06T05:23:13.517Z,14.00
2018-10-06T05:25:49.551Z,12.67
2018-10-06T05:28:24.655Z,12.77
2018-10-06T05:33:40.283Z,14.03
2018-10-06T05:36:15.691Z,15.03
2018-10-06T05:38:50.915Z,13.53
2018-10-06T05:41:25.990Z,14.33
2018-10-06T05:44:01.069Z,14.63
2018-10-06T05:46:37.337Z,13.60
2018-10-06T05:49:13.045Z,14.30
2018-10-06T05:51:48.722Z,14.53
2018-10-06T05:54:24.251Z,13.70
2018-10-06T05:56:59.613Z,14.23
2018-10-06T05:59:36.707Z,14.40
2018-10-06T06:02:12.926Z,13.93
2018-10-06T06:04:47.884Z,14.50
2018-10-06T06:07:23.566Z,13.63
2018-10-06T06:09:58.862Z,13.50
2018-10-06T06:12:42.876Z,12.87
2018-10-06T06:15:20.935Z,12.77
2018-10-06T06:17:56.121Z,12.57
2018-10-06T06:20:36.259Z,13.23
2018-10-06T06:23:12.260Z,12.83
2018-10-06T06:25:48.392Z,13.80
2018-10-06T06:28:26.633Z,13.60
2018-10-06T06:31:06.907Z,15.63
2018-10-06T06:33:46.600Z,14.63
2018-10-06T06:36:34.124Z,14.47
2018-10-06T06:42:30.145Z,36.83
2018-10-06T06:48:24.461Z,23.57
2018-10-06T06:50:59.117Z,18.70
2018-10-06T06:53:34.742Z,19.03
2018-10-06T06:56:15.728Z,16.10
2018-10-06T06:58:50.804Z,16.10
2018-10-06T07:01:25.585Z,33.93
2018-10-06T07:04:00.485Z,14.73
2018-10-06T07:06:36.926Z,14.67
2018-10-06T07:09:11.190Z,17.77
2018-10-06T07:11:46.658Z,16.77
2018-10-06T07:14:21.911Z,16.63
2018-10-06T07:16:56.708Z,15.10
2018-10-06T07:19:31.662Z,16.03
2018-10-06T07:22:08.225Z,15.30
2018-10-06T07:24:44.500Z,14.70
2018-10-06T07:27:19.152Z,14.23
2018-10-06T07:29:54.211Z,14.33
2018-10-06T07:35:34.001Z,12.60
2018-10-06T07:38:19.934Z,11.93
2018-10-06T07:40:54.904Z,12.10
2018-10-06T07:43:31.384Z,12.40
2018-10-06T07:46:08.081Z,12.50
2018-10-06T07:48:42.349Z,12.80
2018-10-06T07:51:17.426Z,12.00
2018-10-06T07:53:52.470Z,11.40
2018-10-06T07:56:28.658Z,12.20
2018-10-06T07:59:05.843Z,21.50
2018-10-06T08:02:02.763Z,13.93
2018-10-06T08:04:38.085Z,12.37
2018-10-06T08:07:13.347Z,32.23
2018-10-06T08:09:48.561Z,12.40
2018-10-06T08:12:24.017Z,11.77
2018-10-06T08:15:28.139Z,12.50
2018-10-06T08:18:10.460Z,12.67
2018-10-06T08:20:50.407Z,11.03
2018-10-06T08:23:28.115Z,10.80
2018-10-06T08:26:17.658Z,10.67
2018-10-06T08:28:59.133Z,9.47
2018-10-06T08:31:37.023Z,10.30
2018-10-06T08:34:12.887Z,10.20
2018-10-06T08:36:48.298Z,44.17
2018-10-06T08:39:29.552Z,10.87
2018-10-06T08:42:05.443Z,9.20
2018-10-06T08:44:40.602Z,9.47
2018-10-06T08:47:16.173Z,9.37
2018-10-06T08:49:55.711Z,8.53
2018-10-06T08:52:32.159Z,11.80
2018-10-06T08:55:07.293Z,8.30
2018-10-06T08:57:42.522Z,7.60
2018-10-06T09:00:17.783Z,8.13
2018-10-06T09:06:10.376Z,8.00
2018-10-06T09:08:45.790Z,22.73
2018-10-06T09:24:31.024Z,9.10
2018-10-06T09:27:06.651Z,9.30
2018-10-06T09:29:42.381Z,9.10
2018-10-06T09:32:19.047Z,8.20
2018-10-06T09:34:54.432Z,9.27
2018-10-06T09:37:30.076Z,8.60
2018-10-06T09:40:05.489Z,9.43
2018-10-06T09:42:40.281Z,10.10
2018-10-06T09:45:18.574Z,9.97
2018-10-06T09:47:54.023Z,9.57
2018-10-06T09:50:30.075Z,9.50
2018-10-06T09:53:09.899Z,9.80
2018-10-06T09:55:46.591Z,10.07
2018-10-06T09:58:24.493Z,9.20
2018-10-06T10:01:07.475Z,8.90
2018-10-06T10:03:52.215Z,8.90
2018-10-06T10:06:34.056Z,9.30
2018-10-06T10:09:16.980Z,9.43
2018-10-06T10:11:58.366Z,8.63
2018-10-06T10:14:44.501Z,7.77
2018-10-06T10:17:20.343Z,8.07
2018-10-06T10:20:00.004Z,7.73
2018-10-06T10:22:43.972Z,8.17
2018-10-06T10:25:26.632Z,8.30
2018-10-06T10:28:12.556Z,8.37
2018-10-06T10:30:52.372Z,7.57
2018-10-06T10:33:38.525Z,7.87
2018-10-06T10:36:21.881Z,8.00
2018-10-06T10:39:05.794Z,7.00
2018-10-06T10:41:50.381Z,6.13
2018-10-06T10:44:29.848Z,6.10
2018-10-06T10:47:10.524Z,5.97
2018-10-06T10:49:49.683Z,6.37
2018-10-06T10:55:39.059Z,6.53
2018-10-06T11:01:07.121Z,6.10
2018-10-06T11:03:49.259Z,5.40
2018-10-06T11:09:32.559Z,4.80
2018-10-06T11:12:11.683Z,5.30
2018-10-06T11:14:49.326Z,4.57
2018-10-06T11:17:24.308Z,4.83
2018-10-06T11:20:03.706Z,6.33
2018-10-06T11:22:41.140Z,5.50
2018-10-06T11:25:22.972Z,5.20
2018-10-06T11:28:01.092Z,5.03
2018-10-06T11:30:40.223Z,5.33
2018-10-06T11:33:17.271Z,5.83
2018-10-06T11:35:52.811Z,5.27
2018-10-06T11:38:28.183Z,5.27
2018-10-06T11:43:44.359Z,5.17
2018-10-06T11:46:22.086Z,4.97
2018-10-06T11:48:58.623Z,4.90
2018-10-06T11:51:33.691Z,5.10
2018-10-06T11:54:19.252Z,4.83
2018-10-06T11:56:54.498Z,5.80
2018-10-06T11:59:30.693Z,5.10
2018-10-06T12:02:05.470Z,4.87
2018-10-06T12:04:40.260Z,5.53
2018-10-06T12:07:15.367Z,5.07
2018-10-06T12:09:50.439Z,5.63
2018-10-06T12:12:26.616Z,6.13
2018-10-06T12:15:01.372Z,5.27
2018-10-06T12:17:38.524Z,5.20
2018-10-06T12:20:13.373Z,5.97
2018-10-06T12:22:54.762Z,6.47
2018-10-06T12:25:32.448Z,5.30
2018-10-06T12:28:07.437Z,5.23
2018-10-06T12:30:42.638Z,5.43
2018-10-06T12:33:17.537Z,5.50
2018-10-06T12:35:52.606Z,5.60
2018-10-06T12:38:27.770Z,5.50
2018-10-06T12:41:02.603Z,6.23
2018-10-06T12:43:37.573Z,5.40
2018-10-06T12:46:12.767Z,5.23
2018-10-06T12:48:48.822Z,5.50
2018-10-06T12:51:24.298Z,5.10
2018-10-06T12:53:59.825Z,5.57
2018-10-06T12:56:34.975Z,6.17
2018-10-06T12:59:10.087Z,5.63
2018-10-06T13:01:47.429Z,6.70
2018-10-06T13:04:22.334Z,6.87
2018-10-06T13:06:57.212Z,6.50
2018-10-06T13:09:34.271Z,6.30
2018-10-06T13:12:15.188Z,6.50
2018-10-06T13:14:50.125Z,6.30
2018-10-06T13:17:25.254Z,6.03
2018-10-06T13:19:59.909Z,5.33
2018-10-06T13:22:34.719Z,4.70
2018-10-06T13:25:09.676Z,4.97
2018-10-06T13:27:44.399Z,5.00
2018-10-06T13:30:19.275Z,4.43
2018-10-06T13:32:54.085Z,4.97
2018-10-06T13:35:29.170Z,4.73
2018-10-06T13:38:04.320Z,4.70
2018-10-06T13:40:39.206Z,4.90
2018-10-06T13:43:14.251Z,4.17
2018-10-06T13:45:49.273Z,4.10
2018-10-06T13:48:24.175Z,4.27
2018-10-06T13:50:58.760Z,4.13
2018-10-06T13:53:33.651Z,3.97
2018-10-06T13:56:08.833Z,4.27
2018-10-06T13:58:43.459Z,4.13
2018-10-06T14:01:18.168Z,4.40
2018-10-06T14:03:53.243Z,4.33
2018-10-06T14:06:31.515Z,4.40
2018-10-06T14:09:06.645Z,4.93
2018-10-06T14:11:41.682Z,4.60
2018-10-06T14:14:16.151Z,4.50
2018-10-06T14:16:50.843Z,4.37
2018-10-06T14:19:25.699Z,4.53
2018-10-06T14:22:00.626Z,4.37
2018-10-06T14:24:35.694Z,4.60
2018-10-06T14:27:10.636Z,4.33
2018-10-06T14:29:45.667Z,4.40
2018-10-06T14:32:20.369Z,4.67
2018-10-06T14:34:55.055Z,8.10
2018-10-06T14:37:31.063Z,9.73
2018-10-06T14:40:05.768Z,4.97
2018-10-06T14:42:40.075Z,4.97
2018-10-06T14:45:15.242Z,4.73
2018-10-06T14:47:50.129Z,4.23
2018-10-06T14:50:24.903Z,5.10
2018-10-06T14:52:59.678Z,4.63
2018-10-06T14:55:35.127Z,4.60
2018-10-06T14:58:10.171Z,4.43
2018-10-06T15:00:45.037Z,4.40
2018-10-06T15:03:19.846Z,4.40
2018-10-06T15:05:54.371Z,4.30
2018-10-06T15:08:29.003Z,4.03
2018-10-06T15:11:03.787Z,3.80
2018-10-06T15:13:38.834Z,3.43
2018-10-06T15:16:15.035Z,3.17
2018-10-06T15:18:50.126Z,3.77
2018-10-06T15:21:25.291Z,3.60
2018-10-06T15:24:00.342Z,3.53
2018-10-06T15:26:35.301Z,3.17
2018-10-06T15:29:10.205Z,3.50
2018-10-06T15:31:46.188Z,3.47
2018-10-06T15:34:20.932Z,3.50
2018-10-06T15:36:55.914Z,4.07
2018-10-06T15:39:31.016Z,3.60
2018-10-06T15:42:05.950Z,3.27
2018-10-06T15:44:40.868Z,3.50
2018-10-06T15:47:15.751Z,3.70
2018-10-06T15:49:50.731Z,3.30
2018-10-06T15:52:25.261Z,3.60
2018-10-06T15:55:01.525Z,3.50
2018-10-06T15:57:36.423Z,3.37
2018-10-06T16:00:11.276Z,3.30
2018-10-06T16:02:46.313Z,3.50
2018-10-06T16:05:20.797Z,3.57
2018-10-06T16:07:55.831Z,3.40
2018-10-06T16:10:30.954Z,3.07
2018-10-06T16:13:05.206Z,3.30
2018-10-06T16:15:40.204Z,3.13
2018-10-06T16:18:16.640Z,3.43
2018-10-06T16:20:51.657Z,3.30
2018-10-06T16:23:26.473Z,3.37
2018-10-06T16:26:01.283Z,3.20
2018-10-06T16:28:36.315Z,3.97
2018-10-06T16:31:11.329Z,4.80
2018-10-06T16:33:45.974Z,4.60
2018-10-06T16:36:20.779Z,4.00
2018-10-06T16:38:55.616Z,3.53
2018-10-06T16:41:30.458Z,4.33
2018-10-06T16:44:05.493Z,3.43
2018-10-06T16:46:40.368Z,3.70
2018-10-06T16:49:15.183Z,3.57
2018-10-06T16:51:51.443Z,3.83
2018-10-06T16:54:26.057Z,3.60
2018-10-06T16:57:01.289Z,3.53
2018-10-06T16:59:36.189Z,3.50
2018-10-06T17:02:11.328Z,3.97
2018-10-06T17:04:46.222Z,3.47
2018-10-06T17:07:21.286Z,3.70
2018-10-06T17:09:55.950Z,3.80
2018-10-06T17:12:30.981Z,3.80
2018-10-06T17:15:12.485Z,3.90
2018-10-06T17:17:47.156Z,3.87
2018-10-06T17:20:21.978Z,4.17
2018-10-06T17:22:56.653Z,4.10
2018-10-06T17:25:31.330Z,4.10
2018-10-06T17:28:06.290Z,4.23
2018-10-06T17:30:41.188Z,4.40
2018-10-06T17:33:15.557Z,4.60
2018-10-06T17:35:50.136Z,4.33
2018-10-06T17:38:25.046Z,4.33
2018-10-06T17:41:01.037Z,5.00
2018-10-06T17:43:38.571Z,4.67
2018-10-06T17:46:18.863Z,4.60
2018-10-06T17:48:54.309Z,4.87
2018-10-06T17:51:28.900Z,5.17
2018-10-06T17:54:03.784Z,5.23
2018-10-06T17:56:38.520Z,4.87
2018-10-06T17:59:13.484Z,4.70
2018-10-06T18:01:48.326Z,4.90
2018-10-06T18:04:23.042Z,5.43
2018-10-06T18:06:58.016Z,5.33
2018-10-06T18:09:33.142Z,5.10
2018-10-06T18:12:08.207Z,5.33
2018-10-06T18:14:43.117Z,6.10
2018-10-06T18:17:18.043Z,5.93
2018-10-06T18:19:53.008Z,6.10
2018-10-06T18:22:27.862Z,6.33
2018-10-06T18:25:02.496Z,7.03
2018-10-06T18:27:37.494Z,7.20
2018-10-06T18:30:12.367Z,8.10
2018-10-06T18:32:47.023Z,7.77
2018-10-06T18:35:21.746Z,7.43
2018-10-06T18:37:56.513Z,7.97
2018-10-06T18:40:31.243Z,8.33
2018-10-06T18:43:06.431Z,8.07
2018-10-06T18:45:41.100Z,8.37
2018-10-06T18:48:15.834Z,8.07
2018-10-06T18:50:50.517Z,7.53
2018-10-06T18:53:25.257Z,7.93
2018-10-06T18:55:59.965Z,7.23
2018-10-06T18:58:38.611Z,8.03
2018-10-06T19:01:14.466Z,7.07
2018-10-06T19:03:50.096Z,7.37
2018-10-06T19:06:25.099Z,7.30
2018-10-06T19:08:59.879Z,7.40
2018-10-06T19:11:41.855Z,7.33
2018-10-06T19:14:18.796Z,7.67
2018-10-06T19:16:54.855Z,7.03
2018-10-06T19:19:29.711Z,7.10
2018-10-06T19:22:04.667Z,6.70
2018-10-06T19:24:41.039Z,7.50
2018-10-06T19:27:16.213Z,6.93
2018-10-06T19:29:52.923Z,7.63
2018-10-06T19:32:28.238Z,7.60
2018-10-06T19:38:20.609Z,8.30
2018-10-06T19:40:59.843Z,7.73
2018-10-06T19:43:35.068Z,7.20
2018-10-06T19:46:10.094Z,7.17
2018-10-06T19:48:45.616Z,7.63
2018-10-06T19:51:21.087Z,7.17
2018-10-06T19:53:57.412Z,7.30
2018-10-06T19:56:32.768Z,7.23
2018-10-06T19:59:08.053Z,7.37
2018-10-06T20:01:42.883Z,7.03
2018-10-06T20:04:17.912Z,7.03
2018-10-06T20:06:52.870Z,7.67
2018-10-06T20:09:29.943Z,8.00
2018-10-06T20:12:05.029Z,6.97
2018-10-06T20:14:42.793Z,6.70
2018-10-06T20:17:18.037Z,7.10
2018-10-06T20:19:53.369Z,7.93
2018-10-06T20:22:28.536Z,7.20
2018-10-06T20:25:05.134Z,7.67
2018-10-06T20:27:40.083Z,7.40
2018-10-06T20:30:15.500Z,7.60
2018-10-06T20:32:50.311Z,8.23
2018-10-06T20:35:25.481Z,7.60
2018-10-06T20:38:00.529Z,7.67
2018-10-06T20:40:35.391Z,7.40
2018-10-06T20:43:10.310Z,6.90
2018-10-06T20:45:47.133Z,7.90
2018-10-06T20:48:22.020Z,7.67
2018-10-06T20:50:56.758Z,7.33
2018-10-06T20:53:31.599Z,7.90
2018-10-06T20:56:07.021Z,7.53
2018-10-06T20:58:43.348Z,7.97
2018-10-06T21:01:18.248Z,8.17
2018-10-06T21:04:20.470Z,8.40
2018-10-06T21:10:16.061Z,10.00
2018-10-06T21:12:50.855Z,9.43
2018-10-06T21:15:25.937Z,8.03
2018-10-06T21:18:00.786Z,9.47
2018-10-06T21:20:35.890Z,9.97
2018-10-06T21:23:11.277Z,9.53
2018-10-06T21:25:46.292Z,9.60
2018-10-06T21:28:21.200Z,9.70
2018-10-06T21:30:56.323Z,9.10
2018-10-06T21:33:31.564Z,10.57
2018-10-06T21:36:06.721Z,9.20
2018-10-06T21:38:41.597Z,9.47
2018-10-06T21:41:16.169Z,9.50
2018-10-06T21:43:59.327Z,9.70
2018-10-06T21:46:34.377Z,10.20
2018-10-06T21:49:09.916Z,9.37
2018-10-06T21:51:45.018Z,9.00
2018-10-06T21:54:20.032Z,9.47
2018-10-06T21:56:55.371Z,9.67
2018-10-06T21:59:30.226Z,10.90
2018-10-06T22:02:11.990Z,9.50
2018-10-06T22:04:54.174Z,9.60
2018-10-06T22:07:34.203Z,9.47
2018-10-06T22:10:10.880Z,9.73
2018-10-06T22:12:46.530Z,9.60
2018-10-06T22:15:23.423Z,9.67
2018-10-06T22:18:01.006Z,10.37
2018-10-06T22:20:36.705Z,10.63
2018-10-06T22:23:13.045Z,10.77
2018-10-06T22:25:48.707Z,10.53
2018-10-06T22:28:25.667Z,10.50
2018-10-06T22:31:03.841Z,10.43
2018-10-06T22:33:39.900Z,11.27
2018-10-06T22:36:15.742Z,11.27
2018-10-06T22:38:51.216Z,11.33
2018-10-06T22:41:26.746Z,9.83
2018-10-06T22:44:06.236Z,10.30
2018-10-06T22:46:43.004Z,10.43
2018-10-06T22:49:17.814Z,10.00
2018-10-06T22:51:53.417Z,9.63
2018-10-06T22:54:28.694Z,9.73
2018-10-06T22:57:04.184Z,10.30
2018-10-06T22:59:39.836Z,9.30
2018-10-06T23:02:14.933Z,10.30
2018-10-06T23:04:51.092Z,10.20
2018-10-06T23:07:34.001Z,10.57
2018-10-06T23:10:09.590Z,10.83
2018-10-06T23:12:43.838Z,11.23
2018-10-06T23:15:19.050Z,10.53
2018-10-06T23:17:54.421Z,10.97
2018-10-06T23:20:29.724Z,10.90
2018-10-06T23:23:05.689Z,12.87
2018-10-06T23:25:41.325Z,11.53
2018-10-06T23:28:16.591Z,10.97
2018-10-06T23:33:35.160Z,12.43
2018-10-06T23:36:10.757Z,11.50
2018-10-06T23:38:46.166Z,12.47
2018-10-06T23:41:22.063Z,11.67
2018-10-06T23:43:58.013Z,10.97
2018-10-06T23:46:34.958Z,10.23
2018-10-06T23:49:10.764Z,10.83
2018-10-06T23:51:46.475Z,10.50
2018-10-06T23:54:22.256Z,11.07
2018-10-06T23:56:57.880Z,11.30
2018-10-06T23:59:34.601Z,11.37
